Time;durP1;ratioP1;P1;durP2;ratioP2;P2;SDS_P1;SDS_P2;PMS_P1;PMS_P2;Temp;Humidity;BMP_temperature;BMP_pressure;BME280_temperature;BME280_humidity;BME280_pressure;Samples;Min_cycle;Max_cycle;Signal;HPM_P1;HPM_P2
2023/08/01 00:00:51;;;;;;;5.97;1.70;;;25.10;81.50;;;;;;5092850;28;20071;-75
2023/08/01 00:03:17;;;;;;;4.68;1.80;;;25.00;81.30;;;;;;5092711;28;20081;-75
2023/08/01 00:05:44;;;;;;;7.10;2.15;;;25.00;81.30;;;;;;5093735;28;20099;-74
2023/08/01 00:08:12;;;;;;;6.65;2.15;;;25.00;81.30;;;;;;5096944;28;20028;-75
2023/08/01 00:10:39;;;;;;;5.28;2.70;;;25.00;81.30;;;;;;5097088;28;20028;-75
2023/08/01 00:13:05;;;;;;;5.15;2.70;;;25.00;81.20;;;;;;5096858;28;20601;-74
2023/08/01 00:15:30;;;;;;;5.15;2.50;;;25.00;81.20;;;;;;5096756;28;20107;-75
2023/08/01 00:17:56;;;;;;;5.82;3.25;;;25.00;81.20;;;;;;5096844;28;20016;-75
2023/08/01 00:20:22;;;;;;;7.15;3.00;;;24.90;81.20;;;;;;5096669;28;20047;-75
2023/08/01 00:22:48;;;;;;;7.65;3.22;;;24.90;81.20;;;;;;5096871;28;20085;-75
2023/08/01 00:25:14;;;;;;;6.97;2.95;;;24.90;81.30;;;;;;5096898;28;20101;-75
2023/08/01 00:27:40;;;;;;;6.93;2.97;;;24.90;81.40;;;;;;5096698;28;20480;-75
2023/08/01 00:30:07;;;;;;;7.30;2.33;;;24.80;81.40;;;;;;5096450;28;20016;-75
2023/08/01 00:32:32;;;;;;;5.10;2.40;;;24.80;81.40;;;;;;5096639;28;20039;-75
2023/08/01 00:34:58;;;;;;;7.28;2.70;;;24.80;81.60;;;;;;5096474;28;20024;-75
2023/08/01 00:37:24;;;;;;;4.43;2.50;;;24.80;81.80;;;;;;5096600;28;20085;-75
2023/08/01 00:39:50;;;;;;;6.78;2.50;;;24.80;81.80;;;;;;5096315;28;20410;-75
2023/08/01 00:42:16;;;;;;;5.88;2.75;;;24.80;81.90;;;;;;5096024;28;20127;-75
2023/08/01 00:44:42;;;;;;;5.78;2.30;;;24.70;81.90;;;;;;5095944;28;20024;-74
2023/08/01 00:47:09;;;;;;;3.67;2.03;;;24.70;82.10;;;;;;5096229;28;20031;-74
2023/08/01 00:49:35;;;;;;;6.10;2.15;;;24.70;82.10;;;;;;5096074;28;20031;-74
2023/08/01 00:52:01;;;;;;;4.55;2.03;;;24.70;82.30;;;;;;5096505;28;20024;-75
2023/08/01 00:54:27;;;;;;;10.70;2.40;;;24.70;82.40;;;;;;5096017;28;20020;-75
2023/08/01 00:56:53;;;;;;;6.68;2.60;;;24.70;82.30;;;;;;5096121;28;20024;-75
2023/08/01 00:59:18;;;;;;;13.02;2.17;;;24.70;82.30;;;;;;5093266;28;20134;-75
2023/08/01 01:01:44;;;;;;;4.20;1.85;;;24.60;82.20;;;;;;5093201;28;20527;-74
2023/08/01 01:04:10;;;;;;;3.15;1.80;;;24.60;82.20;;;;;;5093618;28;20108;-74
2023/08/01 01:06:50;;;;;;;4.22;2.00;;;24.60;82.40;;;;;;5095759;28;20081;-74
2023/08/01 01:09:20;;;;;;;6.07;1.95;;;24.50;82.40;;;;;;5095793;28;20031;-74
2023/08/01 01:11:46;;;;;;;4.35;2.05;;;24.50;82.20;;;;;;5095884;28;20020;-75
2023/08/01 01:14:12;;;;;;;6.25;1.75;;;24.50;82.30;;;;;;5095531;28;20016;-75
2023/08/01 01:16:38;;;;;;;6.13;1.83;;;24.50;82.50;;;;;;5095438;28;20467;-74
2023/08/01 01:19:08;;;;;;;7.70;1.90;;;24.50;82.60;;;;;;5095274;28;20027;-75
2023/08/01 01:21:37;;;;;;;7.68;1.90;;;24.50;82.50;;;;;;5095252;28;20042;-75
2023/08/01 01:24:09;;;;;;;4.88;2.08;;;24.40;82.50;;;;;;5095593;28;20028;-75
2023/08/01 01:26:36;;;;;;;4.82;1.92;;;24.40;82.70;;;;;;5095609;28;20476;-75
2023/08/01 01:29:04;;;;;;;8.68;1.80;;;24.40;82.60;;;;;;5087062;28;20070;-75
2023/08/01 01:31:32;;;;;;;5.28;2.10;;;24.40;82.80;;;;;;5095503;28;20024;-75
2023/08/01 01:33:59;;;;;;;4.07;1.85;;;24.30;83.00;;;;;;5095354;28;20475;-74
2023/08/01 01:36:25;;;;;;;2.60;1.88;;;24.40;83.10;;;;;;5095181;28;20052;-74
2023/08/01 01:38:51;;;;;;;3.17;1.85;;;24.30;83.20;;;;;;5095235;28;20078;-74
2023/08/01 01:41:16;;;;;;;8.77;2.00;;;24.30;83.20;;;;;;5094988;28;20039;-75
2023/08/01 01:43:42;;;;;;;7.03;1.70;;;24.30;83.10;;;;;;5094923;28;20059;-75
2023/08/01 01:46:08;;;;;;;5.32;1.80;;;24.30;83.00;;;;;;5095488;28;20020;-74
2023/08/01 01:48:33;;;;;;;6.30;1.98;;;24.30;82.90;;;;;;5095321;28;20024;-74
2023/08/01 01:50:59;;;;;;;4.13;2.55;;;24.30;82.80;;;;;;5095061;28;20027;-75
2023/08/01 01:53:25;;;;;;;4.55;1.80;;;24.30;82.70;;;;;;5094678;28;20035;-75
2023/08/01 01:55:50;;;;;;;8.60;1.73;;;24.30;82.80;;;;;;5095111;28;20028;-75
2023/08/01 01:58:16;;;;;;;6.55;2.78;;;24.20;82.90;;;;;;5094927;28;20074;-75
2023/08/01 02:00:42;;;;;;;4.32;1.98;;;24.20;83.10;;;;;;5094652;28;20101;-75
2023/08/01 02:03:10;;;;;;;8.52;1.92;;;24.20;83.40;;;;;;5094741;28;20028;-74
2023/08/01 02:05:36;;;;;;;2.97;1.75;;;24.20;83.60;;;;;;5094956;28;20028;-74
2023/08/01 02:08:04;;;;;;;7.78;2.00;;;24.20;83.70;;;;;;5094947;28;20016;-74
2023/08/01 02:10:30;;;;;;;3.85;1.95;;;24.20;83.90;;;;;;5094685;28;20020;-74
2023/08/01 02:12:56;;;;;;;4.15;1.90;;;24.10;84.00;;;;;;5094444;28;20472;-75
2023/08/01 02:15:21;;;;;;;7.15;2.58;;;24.10;84.10;;;;;;5094763;28;20021;-74
2023/08/01 02:17:47;;;;;;;2.88;1.90;;;24.10;84.50;;;;;;5094755;28;20028;-75
2023/08/01 02:20:13;;;;;;;3.17;1.90;;;24.10;84.60;;;;;;5094679;28;20429;-75
2023/08/01 02:22:39;;;;;;;3.85;2.03;;;24.10;84.60;;;;;;5094435;28;20024;-75
2023/08/01 02:25:05;;;;;;;8.60;2.00;;;24.10;84.60;;;;;;5094601;28;20094;-74
2023/08/01 02:27:30;;;;;;;3.00;1.88;;;24.10;84.70;;;;;;5093892;28;20526;-74
2023/08/01 02:29:56;;;;;;;4.50;2.03;;;24.20;84.70;;;;;;5089237;28;20122;-74
2023/08/01 02:32:22;;;;;;;7.53;1.88;;;24.10;84.40;;;;;;5094438;28;20088;-74
2023/08/01 02:34:48;;;;;;;4.43;1.70;;;24.10;84.20;;;;;;5094379;28;20020;-75
2023/08/01 02:37:13;;;;;;;7.30;1.90;;;24.20;84.10;;;;;;5094373;28;20043;-75
2023/08/01 02:39:39;;;;;;;4.78;2.10;;;24.10;83.90;;;;;;5094023;28;20113;-75
2023/08/01 02:42:05;;;;;;;5.25;1.77;;;24.10;83.60;;;;;;5090139;28;20075;-74
2023/08/01 02:44:31;;;;;;;5.93;1.80;;;24.10;83.50;;;;;;5094031;28;20032;-75
2023/08/01 02:46:57;;;;;;;3.58;1.70;;;24.10;83.50;;;;;;5093692;28;20031;-74
2023/08/01 02:49:22;;;;;;;5.15;1.60;;;24.10;83.40;;;;;;5094195;28;20097;-74
2023/08/01 02:51:48;;;;;;;4.90;1.80;;;24.10;83.30;;;;;;5093831;28;20016;-74
2023/08/01 02:54:14;;;;;;;3.33;1.52;;;24.00;83.20;;;;;;5093540;28;20078;-75
2023/08/01 02:56:41;;;;;;;5.55;1.70;;;24.00;83.20;;;;;;5093495;28;20031;-74
2023/08/01 02:59:10;;;;;;;6.38;2.00;;;24.00;83.20;;;;;;5093812;28;20464;-75
2023/08/01 03:01:37;;;;;;;5.63;2.40;;;24.00;83.40;;;;;;5093646;28;20472;-74
2023/08/01 03:04:03;;;;;;;4.43;2.20;;;24.00;83.80;;;;;;5093537;28;20058;-75
2023/08/01 03:06:30;;;;;;;6.22;2.20;;;23.90;83.90;;;;;;5093295;28;20059;-75
2023/08/01 03:08:56;;;;;;;3.17;2.08;;;23.90;84.20;;;;;;5093462;28;20428;-75
2023/08/01 03:11:22;;;;;;;6.35;2.20;;;23.90;84.50;;;;;;5093499;28;20024;-75
2023/08/01 03:13:47;;;;;;;8.55;2.10;;;23.90;84.70;;;;;;5093800;28;20020;-75
2023/08/01 03:16:13;;;;;;;3.78;1.98;;;23.90;84.80;;;;;;5091542;28;20016;-75
2023/08/01 03:18:39;;;;;;;13.75;2.90;;;23.90;84.90;;;;;;5093685;28;20652;-74
2023/08/01 03:21:04;;;;;;;7.57;2.40;;;23.80;84.70;;;;;;5093140;28;20032;-75
2023/08/01 03:23:30;;;;;;;9.27;2.50;;;23.80;84.90;;;;;;5093446;28;20035;-75
2023/08/01 03:25:56;;;;;;;9.20;2.05;;;23.80;85.10;;;;;;5093563;28;20016;-75
2023/08/01 03:28:22;;;;;;;6.22;2.20;;;23.70;85.20;;;;;;5093208;28;20103;-75
2023/08/01 03:30:50;;;;;;;5.90;2.22;;;23.70;85.40;;;;;;5093083;28;20020;-75
2023/08/01 03:33:16;;;;;;;4.22;1.90;;;23.70;85.70;;;;;;5075152;28;20020;-74
2023/08/01 03:35:42;;;;;;;4.80;2.22;;;23.70;85.80;;;;;;5093396;28;20510;-75
2023/08/01 03:38:07;;;;;;;8.77;2.55;;;23.60;85.90;;;;;;5093173;28;20056;-75
2023/08/01 03:40:33;;;;;;;6.32;2.10;;;23.70;86.00;;;;;;5092055;28;20040;-74
2023/08/01 03:42:59;;;;;;;5.20;2.20;;;23.60;85.90;;;;;;5092976;28;20040;-75
2023/08/01 03:45:25;;;;;;;3.90;2.13;;;23.60;85.70;;;;;;5093135;28;20028;-75
2023/08/01 03:47:50;;;;;;;8.95;2.40;;;23.60;85.80;;;;;;5093125;28;20028;-75
2023/08/01 03:50:16;;;;;;;5.22;2.08;;;23.50;85.80;;;;;;5093167;28;20024;-74
2023/08/01 03:52:42;;;;;;;6.10;2.75;;;23.50;86.00;;;;;;5092938;28;20066;-74
2023/08/01 03:55:08;;;;;;;3.20;2.50;;;23.40;86.10;;;;;;5089682;28;20542;-74
2023/08/01 03:57:34;;;;;;;8.65;2.42;;;23.40;86.30;;;;;;5092836;28;20067;-74
2023/08/01 04:00:00;;;;;;;5.03;2.13;;;23.40;86.40;;;;;;5093055;28;20035;-74
2023/08/01 04:02:26;;;;;;;7.47;2.70;;;23.40;86.60;;;;;;5092883;28;20081;-74
2023/08/01 04:04:53;;;;;;;5.47;2.28;;;23.40;86.90;;;;;;5093020;28;20020;-75
2023/08/01 04:07:18;;;;;;;8.20;2.70;;;23.40;86.90;;;;;;5092782;28;20487;-74
2023/08/01 04:09:44;;;;;;;4.45;2.45;;;23.30;86.90;;;;;;5092779;28;20034;-75
2023/08/01 04:12:10;;;;;;;6.00;2.40;;;23.30;87.10;;;;;;5092842;28;20546;-75
2023/08/01 04:14:36;;;;;;;5.88;2.17;;;23.30;87.30;;;;;;5092840;28;20020;-74
2023/08/01 04:17:02;;;;;;;6.60;2.45;;;23.30;87.40;;;;;;5081391;28;20472;-75
2023/08/01 04:19:27;;;;;;;3.45;2.00;;;23.30;87.40;;;;;;5092423;28;20023;-74
2023/08/01 04:21:53;;;;;;;5.35;2.00;;;23.30;87.50;;;;;;5092743;28;20032;-74
2023/08/01 04:24:19;;;;;;;5.38;2.25;;;23.30;87.30;;;;;;5074445;28;20411;-75
2023/08/01 04:26:45;;;;;;;12.65;3.03;;;23.30;87.30;;;;;;5092573;28;20081;-74
2023/08/01 04:29:12;;;;;;;3.92;2.05;;;23.30;87.30;;;;;;5092757;28;20031;-75
2023/08/01 04:31:37;;;;;;;3.13;2.00;;;23.30;87.20;;;;;;5091541;28;20051;-75
2023/08/01 04:34:03;;;;;;;3.67;2.00;;;23.30;87.10;;;;;;5074848;28;20055;-74
2023/08/01 04:36:29;;;;;;;7.32;2.10;;;23.30;87.10;;;;;;5072282;28;20468;-74
2023/08/01 04:38:54;;;;;;;4.13;1.90;;;23.30;87.00;;;;;;5072333;28;20036;-75
2023/08/01 04:41:20;;;;;;;5.70;2.15;;;23.30;86.80;;;;;;5071984;28;20086;-74
2023/08/01 04:43:46;;;;;;;3.47;1.80;;;23.30;86.40;;;;;;5071867;28;20047;-74
2023/08/01 04:46:12;;;;;;;5.22;1.98;;;23.30;86.50;;;;;;5063215;28;20039;-74
2023/08/01 04:48:37;;;;;;;5.13;1.90;;;23.30;86.70;;;;;;5092424;28;20073;-75
2023/08/01 04:51:03;;;;;;;5.55;2.00;;;23.30;86.70;;;;;;5092550;28;20047;-74
2023/08/01 04:53:29;;;;;;;5.45;2.17;;;23.30;86.90;;;;;;5095978;28;20107;-75
2023/08/01 04:55:54;;;;;;;6.72;2.10;;;23.30;87.00;;;;;;5095774;28;20032;-74
2023/08/01 04:58:20;;;;;;;7.32;1.90;;;23.30;87.10;;;;;;5095933;28;20111;-75
2023/08/01 05:00:46;;;;;;;4.32;1.95;;;23.40;87.20;;;;;;5096019;28;20053;-75
2023/08/01 05:03:12;;;;;;;4.70;2.10;;;23.40;87.10;;;;;;5077983;28;20024;-75
2023/08/01 05:05:37;;;;;;;5.50;2.13;;;23.40;86.90;;;;;;5096149;28;20034;-75
2023/08/01 05:08:03;;;;;;;3.65;1.80;;;23.40;86.70;;;;;;5094936;28;20027;-75
2023/08/01 05:10:29;;;;;;;5.15;1.90;;;23.40;86.60;;;;;;5094896;28;20157;-75
2023/08/01 05:12:55;;;;;;;6.15;2.35;;;23.40;86.60;;;;;;5094976;28;20052;-74
2023/08/01 05:15:20;;;;;;;4.38;1.95;;;23.40;86.60;;;;;;5076873;28;20024;-75
2023/08/01 05:17:46;;;;;;;3.97;2.63;;;23.50;86.90;;;;;;5094741;28;20028;-74
2023/08/01 05:20:12;;;;;;;5.53;2.00;;;23.50;87.10;;;;;;5094363;28;20035;-74
2023/08/01 05:22:37;;;;;;;2.67;1.80;;;23.60;87.20;;;;;;5095149;28;20536;-74
2023/08/01 05:25:04;;;;;;;7.78;2.10;;;23.60;87.20;;;;;;5077222;28;20052;-75
2023/08/01 05:27:30;;;;;;;4.65;2.15;;;23.60;87.10;;;;;;5077201;28;20098;-75
2023/08/01 05:29:56;;;;;;;5.28;2.15;;;23.60;87.00;;;;;;5077257;28;20032;-74
2023/08/01 05:32:22;;;;;;;3.72;1.80;;;23.70;86.80;;;;;;5069056;28;20364;-74
2023/08/01 05:34:47;;;;;;;3.13;1.85;;;23.70;86.70;;;;;;5095457;28;20100;-75
2023/08/01 05:37:13;;;;;;;5.80;1.98;;;23.70;86.80;;;;;;5095419;28;20056;-74
2023/08/01 05:39:39;;;;;;;3.33;1.95;;;23.70;87.10;;;;;;5095421;28;20511;-74
2023/08/01 05:42:08;;;;;;;7.03;1.90;;;23.70;87.40;;;;;;5095093;28;20079;-73
2023/08/01 05:44:34;;;;;;;3.10;2.03;;;23.70;87.60;;;;;;5095403;28;20077;-73
2023/08/01 05:47:00;;;;;;;5.07;1.98;;;23.70;88.10;;;;;;5095160;28;20036;-74
2023/08/01 05:49:26;;;;;;;10.13;2.20;;;23.70;88.50;;;;;;5095263;28;20024;-73
2023/08/01 05:51:51;;;;;;;6.15;1.98;;;23.70;88.50;;;;;;5095263;28;20107;-74
2023/08/01 05:54:17;;;;;;;5.15;2.10;;;23.80;88.40;;;;;;5095106;28;20046;-74
2023/08/01 05:56:43;;;;;;;8.88;2.33;;;23.80;88.00;;;;;;5094451;28;20051;-74
2023/08/01 05:59:09;;;;;;;6.63;2.17;;;23.80;87.90;;;;;;5093126;28;20024;-74
2023/08/01 06:01:34;;;;;;;4.63;1.95;;;23.80;87.50;;;;;;5093044;28;20039;-75
2023/08/01 06:04:00;;;;;;;6.78;2.13;;;23.80;87.20;;;;;;5091826;28;20024;-75
2023/08/01 06:06:26;;;;;;;3.45;2.35;;;23.90;87.30;;;;;;5092755;28;20035;-75
2023/08/01 06:08:52;;;;;;;3.05;2.22;;;23.90;87.30;;;;;;5094746;28;20027;-75
2023/08/01 06:11:18;;;;;;;7.90;2.33;;;23.90;87.50;;;;;;5075296;28;20032;-75
2023/08/01 06:13:43;;;;;;;5.60;2.40;;;23.90;88.00;;;;;;5094440;28;20031;-75
2023/08/01 06:16:10;;;;;;;3.85;2.00;;;23.90;88.30;;;;;;5094816;28;20024;-75
2023/08/01 06:18:36;;;;;;;5.00;2.22;;;24.00;88.10;;;;;;5094367;28;20019;-74
2023/08/01 06:21:02;;;;;;;7.20;2.42;;;24.00;87.60;;;;;;5076259;28;20054;-75
2023/08/01 06:23:28;;;;;;;7.28;2.58;;;24.00;88.20;;;;;;5094588;28;20043;-75
2023/08/01 06:25:54;;;;;;;13.25;3.13;;;24.00;88.80;;;;;;5075985;28;20115;-75
2023/08/01 06:28:19;;;;;;;7.43;2.75;;;24.10;88.70;;;;;;5094334;28;20035;-75
2023/08/01 06:30:46;;;;;;;5.63;3.10;;;24.00;88.80;;;;;;5094142;28;20037;-75
2023/08/01 06:33:11;;;;;;;10.60;2.95;;;24.00;89.10;;;;;;5094174;28;20486;-74
2023/08/01 06:35:37;;;;;;;5.45;3.10;;;24.00;89.10;;;;;;5094314;28;20059;-75
2023/08/01 06:38:03;;;;;;;14.23;3.00;;;24.00;89.20;;;;;;5094319;28;20020;-75
2023/08/01 06:40:29;;;;;;;12.00;3.17;;;24.00;89.40;;;;;;5075427;28;20118;-74
2023/08/01 06:42:54;;;;;;;5.22;3.40;;;24.00;89.50;;;;;;5090747;28;20121;-74
2023/08/01 06:45:20;;;;;;;12.20;3.50;;;24.00;89.70;;;;;;5093293;28;20028;-74
2023/08/01 06:47:46;;;;;;;17.40;3.60;;;24.00;90.00;;;;;;5093207;28;20031;-73
2023/08/01 06:50:12;;;;;;;8.10;3.05;;;24.00;90.00;;;;;;5093198;28;20028;-73
2023/08/01 06:52:37;;;;;;;13.32;3.17;;;24.00;90.00;;;;;;5093194;28;20398;-74
2023/08/01 06:55:03;;;;;;;8.65;2.80;;;24.00;89.70;;;;;;5093368;28;20035;-73
2023/08/01 06:57:30;;;;;;;6.10;2.53;;;24.00;89.80;;;;;;5093126;28;20020;-74
2023/08/01 06:59:56;;;;;;;5.63;2.72;;;24.00;89.70;;;;;;5092943;28;20039;-73
2023/08/01 07:02:22;;;;;;;12.10;2.97;;;24.00;89.60;;;;;;5089380;28;20037;-74
2023/08/01 07:04:48;;;;;;;5.38;2.47;;;24.10;90.00;;;;;;5088258;28;20031;-75
2023/08/01 07:07:13;;;;;;;5.47;2.40;;;24.10;90.20;;;;;;5093498;28;20110;-73
2023/08/01 07:09:39;;;;;;;8.38;2.45;;;24.10;90.10;;;;;;5093457;28;20099;-76
2023/08/01 07:12:05;;;;;;;7.63;2.83;;;24.20;89.90;;;;;;5093078;28;20028;-77
2023/08/01 07:14:31;;;;;;;5.05;2.42;;;24.20;89.60;;;;;;5092804;28;20112;-77
2023/08/01 07:16:57;;;;;;;8.85;2.28;;;24.20;89.20;;;;;;5093025;28;20059;-75
2023/08/01 07:19:23;;;;;;;5.22;2.17;;;24.20;89.10;;;;;;5092841;28;20027;-77
2023/08/01 07:21:49;;;;;;;7.18;2.47;;;24.20;89.40;;;;;;5093051;28;20032;-74
2023/08/01 07:24:15;;;;;;;8.10;2.40;;;24.30;89.60;;;;;;5092714;28;20024;-74
2023/08/01 07:26:41;;;;;;;7.28;2.80;;;24.30;89.20;;;;;;5092807;28;20024;-75
2023/08/01 07:29:11;;;;;;;6.88;3.00;;;24.30;88.80;;;;;;5092747;28;20035;-73
2023/08/01 07:31:37;;;;;;;10.68;3.10;;;24.40;88.40;;;;;;5092827;28;20381;-76
2023/08/01 07:34:03;;;;;;;11.52;3.88;;;24.40;88.20;;;;;;5088977;28;20069;-76
2023/08/01 07:36:28;;;;;;;7.03;3.20;;;24.40;87.80;;;;;;5092688;28;20062;-76
2023/08/01 07:38:56;;;;;;;11.85;3.47;;;24.40;87.70;;;;;;5087905;28;20077;-76
2023/08/01 07:41:22;;;;;;;9.20;4.35;;;24.40;87.80;;;;;;5092938;28;20056;-75
2023/08/01 07:43:48;;;;;;;6.30;3.83;;;24.40;87.60;;;;;;5093043;28;20024;-76
2023/08/01 07:46:14;;;;;;;7.07;4.00;;;24.40;87.40;;;;;;5092445;28;20020;-77
2023/08/01 07:48:40;;;;;;;9.52;4.10;;;24.40;87.20;;;;;;5091868;28;20381;-78
2023/08/01 07:51:07;;;;;;;6.05;3.45;;;24.50;87.30;;;;;;5092607;28;20115;-77
2023/08/01 07:53:34;;;;;;;7.07;3.25;;;24.40;87.50;;;;;;5093126;28;20106;-77
2023/08/01 07:56:02;;;;;;;7.60;3.20;;;24.40;87.80;;;;;;5092171;28;20070;-77
2023/08/01 07:58:28;;;;;;;6.68;2.80;;;24.40;88.00;;;;;;5092342;28;20407;-77
2023/08/01 08:00:54;;;;;;;5.35;2.88;;;24.50;88.30;;;;;;5091999;28;20032;-77
2023/08/01 08:03:22;;;;;;;11.32;3.20;;;24.50;87.90;;;;;;5092813;28;20078;-76
2023/08/01 08:05:48;;;;;;;8.98;2.60;;;24.50;88.20;;;;;;5092685;28;20020;-77
2023/08/01 08:08:14;;;;;;;4.97;2.42;;;24.50;88.80;;;;;;5092270;28;20028;-77
2023/08/01 08:10:40;;;;;;;4.57;2.33;;;24.50;88.50;;;;;;5093040;28;20020;-77
2023/08/01 08:13:05;;;;;;;3.72;2.30;;;24.50;88.20;;;;;;5093023;28;20029;-78
2023/08/01 08:15:34;;;;;;;5.95;2.83;;;24.50;88.80;;;;;;5092767;28;20073;-78
2023/08/01 08:18:04;;;;;;;8.70;2.92;;;24.50;88.40;;;;;;5093095;28;20024;-77
2023/08/01 08:20:30;;;;;;;7.15;3.28;;;24.60;88.30;;;;;;5092901;28;20088;-77
2023/08/01 08:22:55;;;;;;;7.32;3.60;;;24.60;88.00;;;;;;5074734;28;20064;-77
2023/08/01 08:25:21;;;;;;;8.95;3.65;;;24.50;87.90;;;;;;5092858;28;20020;-77
2023/08/01 08:27:49;;;;;;;8.93;3.80;;;24.60;88.30;;;;;;5095945;28;20028;-77
2023/08/01 08:30:14;;;;;;;12.23;4.35;;;24.60;88.70;;;;;;5096664;28;20507;-77
2023/08/01 08:32:40;;;;;;;7.13;3.75;;;24.60;88.60;;;;;;5078622;28;20024;-75
2023/08/01 08:35:06;;;;;;;11.80;4.55;;;24.50;88.50;;;;;;5096575;28;20024;-75
2023/08/01 08:37:32;;;;;;;9.00;3.85;;;24.50;88.70;;;;;;5096805;28;20399;-77
2023/08/01 08:39:58;;;;;;;9.55;4.63;;;24.50;88.90;;;;;;5096622;28;20032;-77
2023/08/01 08:42:24;;;;;;;6.78;3.33;;;24.50;89.40;;;;;;5096331;28;20492;-76
2023/08/01 08:44:54;;;;;;;9.15;3.38;;;24.50;89.90;;;;;;5096348;28;20028;-76
2023/08/01 08:47:25;;;;;;;8.93;3.70;;;24.50;90.10;;;;;;5096433;28;20020;-75
2023/08/01 08:49:52;;;;;;;8.67;2.87;;;24.50;90.30;;;;;;5078258;28;20028;-77
2023/08/01 08:52:19;;;;;;;8.30;3.10;;;24.50;90.50;;;;;;5096360;28;20268;-76
2023/08/01 08:54:46;;;;;;;7.43;2.80;;;24.40;90.70;;;;;;5096560;28;20027;-76
2023/08/01 08:57:13;;;;;;;7.47;3.08;;;24.50;90.90;;;;;;5096112;28;20028;-76
2023/08/01 08:59:39;;;;;;;4.80;3.05;;;24.40;91.20;;;;;;5096041;28;20535;-77
2023/08/01 09:02:05;;;;;;;5.88;2.78;;;24.40;91.30;;;;;;5095851;28;20467;-77
2023/08/01 09:04:34;;;;;;;7.22;3.00;;;24.40;91.60;;;;;;5087765;28;20039;-76
2023/08/01 09:07:06;;;;;;;3.88;2.40;;;24.40;91.90;;;;;;5074917;28;20056;-77
2023/08/01 09:09:34;;;;;;;2.63;2.15;;;24.40;91.90;;;;;;5095844;28;20020;-77
2023/08/01 09:12:00;;;;;;;7.88;3.17;;;24.40;92.10;;;;;;5095819;28;20157;-77
2023/08/01 09:14:25;;;;;;;4.82;2.50;;;24.40;92.10;;;;;;5086679;28;20103;-76
2023/08/01 09:16:52;;;;;;;6.47;2.47;;;24.40;92.30;;;;;;5095762;28;20084;-75
2023/08/01 09:19:19;;;;;;;3.90;2.30;;;24.40;92.30;;;;;;5095546;28;20532;-77
2023/08/01 09:21:45;;;;;;;5.93;2.40;;;24.40;92.40;;;;;;5077657;28;20162;-76
2023/08/01 09:24:16;;;;;;;9.27;2.72;;;24.40;92.30;;;;;;5095558;28;20436;-77
2023/08/01 09:26:42;;;;;;;6.53;2.45;;;24.40;92.30;;;;;;5095832;28;20107;-76
2023/08/01 09:29:08;;;;;;;6.03;2.65;;;24.40;92.40;;;;;;5095210;28;20467;-74
2023/08/01 09:31:42;;;;;;;8.30;2.50;;;24.40;92.50;;;;;;5095225;28;20028;-76
2023/08/01 09:34:26;;;;;;;3.53;2.53;;;24.40;92.70;;;;;;5095450;28;20020;-77
2023/08/01 09:36:58;;;;;;;5.60;2.42;;;24.50;92.70;;;;;;5095043;28;20099;-77
2023/08/01 09:39:24;;;;;;;;;;;24.50;92.40;;;;;;5095521;28;20024;-77
2023/08/01 09:42:00;;;;;;;4.25;2.25;;;24.50;92.30;;;;;;5087520;28;20004;-75
2023/08/01 09:44:27;;;;;;;4.00;2.15;;;24.60;92.50;;;;;;5087676;28;20020;-75
2023/08/01 09:47:00;;;;;;;4.32;2.20;;;24.70;92.30;;;;;;5095285;28;20464;-76
2023/08/01 09:49:27;;;;;;;4.82;2.00;;;24.80;92.10;;;;;;5095197;28;20028;-74
2023/08/01 09:51:54;;;;;;;4.10;2.10;;;24.80;91.70;;;;;;5095020;28;20467;-73
2023/08/01 09:54:21;;;;;;;3.60;2.03;;;24.90;91.40;;;;;;5095376;28;20426;-74
2023/08/01 09:56:49;;;;;;;4.05;2.08;;;24.90;91.00;;;;;;5095031;28;20095;-74
2023/08/01 09:59:25;;;;;;;4.28;1.63;;;24.90;90.70;;;;;;5095076;28;20384;-75
2023/08/01 10:01:52;;;;;;;2.47;1.90;;;25.00;90.70;;;;;;5094576;28;20048;-76
2023/08/01 10:04:24;;;;;;;4.53;1.92;;;25.00;90.10;;;;;;5094669;28;20062;-75
2023/08/01 10:06:54;;;;;;;;;;;25.00;88.50;;;;;;5095197;28;20209;-71
2023/08/01 10:09:22;;;;;;;2.33;1.63;;;25.00;88.10;;;;;;5095595;28;19904;-76
2023/08/01 10:11:51;;;;;;;4.60;1.95;;;25.00;87.90;;;;;;5097908;28;20051;-78
2023/08/01 10:14:19;;;;;;;5.00;1.67;;;25.10;87.80;;;;;;5098284;28;20107;-76
2023/08/01 10:16:45;;;;;;;4.57;1.70;;;25.10;87.70;;;;;;5095924;28;20024;-83
2023/08/01 10:19:13;;;;;;;4.28;1.88;;;25.10;87.50;;;;;;5094141;28;20058;-80
2023/08/01 10:21:41;;;;;;;3.75;1.92;;;25.10;87.00;;;;;;5094094;28;20039;-81
2023/08/01 10:24:07;;;;;;;3.65;1.70;;;25.10;86.70;;;;;;5093677;28;20016;-83
2023/08/01 10:26:34;;;;;;;3.38;1.83;;;25.10;85.60;;;;;;5093688;28;20028;-84
2023/08/01 10:29:02;;;;;;;4.40;1.92;;;25.20;84.80;;;;;;5090087;28;20061;-78
2023/08/01 10:31:28;;;;;;;1.75;1.52;;;25.30;87.10;;;;;;5094352;28;20031;-77
2023/08/01 10:34:06;;;;;;;2.15;1.83;;;25.30;86.90;;;;;;5093997;28;20028;-80
2023/08/01 10:36:32;;;;;;;2.08;1.45;;;25.40;87.00;;;;;;5094157;28;20020;-76
2023/08/01 10:39:00;;;;;;;2.92;1.67;;;25.40;87.40;;;;;;5093966;28;20068;-80
2023/08/01 10:41:27;;;;;;;4.55;1.80;;;25.40;87.90;;;;;;5093910;28;20043;-79
2023/08/01 10:44:16;;;;;;;3.88;1.92;;;25.40;88.00;;;;;;5094220;28;20020;-80
2023/08/01 10:46:58;;;;;;;1.60;1.50;;;25.50;87.50;;;;;;5093997;28;20532;-80
2023/08/01 10:49:43;;;;;;;4.03;1.70;;;25.50;86.50;;;;;;5084940;28;20559;-78
2023/08/01 10:52:26;;;;;;;3.67;2.30;;;25.50;86.40;;;;;;5094151;28;20178;-79
2023/08/01 10:55:03;;;;;;;2.08;1.70;;;25.50;86.20;;;;;;5093823;28;20016;-79
2023/08/01 10:57:34;;;;;;;3.95;2.10;;;25.50;86.10;;;;;;5093525;28;20020;-77
2023/08/01 11:00:00;;;;;;;3.38;1.73;;;25.60;86.40;;;;;;5093347;28;20039;-79
2023/08/01 11:02:27;;;;;;;2.67;2.00;;;25.60;86.40;;;;;;5093673;28;20020;-80
2023/08/01 11:05:00;;;;;;;2.35;1.60;;;25.70;86.40;;;;;;5093805;28;20528;-79
2023/08/01 11:07:26;;;;;;;5.05;2.20;;;25.70;86.20;;;;;;5093430;28;20028;-79
2023/08/01 11:10:09;;;;;;;1.55;1.40;;;25.80;85.70;;;;;;5093545;28;20020;-79
2023/08/01 11:12:42;;;;;;;5.93;2.35;;;25.80;84.20;;;;;;5093663;28;20499;-79
2023/08/01 11:15:12;;;;;;;2.25;1.65;;;25.90;83.60;;;;;;5093715;28;20016;-79
2023/08/01 11:17:40;;;;;;;3.03;1.83;;;25.90;83.00;;;;;;5093471;28;20349;-80
2023/08/01 11:20:11;;;;;;;2.70;1.67;;;25.90;82.00;;;;;;5093204;28;20035;-78
2023/08/01 11:23:01;;;;;;;3.70;1.45;;;26.00;83.70;;;;;;5088131;28;20037;-79
2023/08/01 11:25:39;;;;;;;2.20;1.73;;;26.10;83.90;;;;;;5085956;28;20412;-79
2023/08/01 11:28:13;;;;;;;6.75;1.80;;;26.10;84.20;;;;;;5093398;28;20028;-80
2023/08/01 11:30:40;;;;;;;8.13;2.00;;;26.20;83.70;;;;;;5075079;28;20028;-79
2023/08/01 11:33:20;;;;;;;1.92;1.63;;;26.20;83.00;;;;;;5093023;28;20035;-79
2023/08/01 11:35:46;;;;;;;2.72;1.80;;;26.20;83.00;;;;;;5093096;28;20089;-78
2023/08/01 11:38:12;;;;;;;3.05;1.80;;;26.10;83.10;;;;;;5092910;28;20047;-77
2023/08/01 11:40:39;;;;;;;6.10;1.80;;;26.10;83.00;;;;;;5092946;28;20083;-78
2023/08/01 11:43:04;;;;;;;3.53;1.92;;;26.10;83.30;;;;;;5092677;28;20399;-77
2023/08/01 11:45:30;;;;;;;4.45;1.80;;;26.10;83.40;;;;;;5092982;28;20031;-77
2023/08/01 11:47:56;;;;;;;1.90;1.75;;;26.00;83.30;;;;;;5093060;28;20020;-77
2023/08/01 11:50:23;;;;;;;5.10;2.20;;;26.00;83.50;;;;;;5093021;28;20028;-74
2023/08/01 11:52:49;;;;;;;5.07;1.73;;;26.00;83.80;;;;;;5092927;28;20028;-79
2023/08/01 11:55:22;;;;;;;2.67;1.70;;;26.00;83.90;;;;;;5092799;28;20547;-78
2023/08/01 11:57:52;;;;;;;5.20;1.80;;;26.00;84.20;;;;;;5092693;28;20112;-80
2023/08/01 12:00:26;;;;;;;2.67;1.67;;;26.00;84.70;;;;;;5074825;28;20036;-76
2023/08/01 12:03:07;;;;;;;3.20;1.70;;;25.90;84.60;;;;;;5076097;28;20036;-79
2023/08/01 12:05:34;;;;;;;3.42;1.75;;;25.90;84.50;;;;;;5093929;28;20035;-78
2023/08/01 12:08:13;;;;;;;3.85;1.55;;;25.90;84.60;;;;;;5096346;28;20023;-79
2023/08/01 12:10:45;;;;;;;2.28;1.50;;;25.90;84.40;;;;;;5096787;28;20020;-79
2023/08/01 12:13:21;;;;;;;3.80;1.73;;;25.90;84.30;;;;;;5078316;28;20455;-78
2023/08/01 12:15:49;;;;;;;2.20;1.50;;;25.80;84.00;;;;;;5097093;28;20020;-78
2023/08/01 12:18:26;;;;;;;4.93;1.70;;;25.80;83.90;;;;;;5097009;28;20035;-80
2023/08/01 12:20:52;;;;;;;2.25;1.70;;;25.80;83.80;;;;;;5096908;28;20116;-78
2023/08/01 12:23:18;;;;;;;2.88;1.58;;;25.70;84.10;;;;;;5096610;28;20028;-79
2023/08/01 12:25:45;;;;;;;2.63;1.70;;;25.70;84.50;;;;;;5096719;28;20488;-79
2023/08/01 12:28:12;;;;;;;2.50;1.80;;;25.70;83.90;;;;;;5096701;28;20024;-79
2023/08/01 12:30:41;;;;;;;2.22;1.58;;;25.70;83.70;;;;;;5097013;28;20028;-79
2023/08/01 12:33:07;;;;;;;2.63;1.60;;;25.80;83.60;;;;;;5114993;28;20019;-76
2023/08/01 12:35:33;;;;;;;2.42;1.67;;;25.80;83.40;;;;;;5116731;28;20032;-76
2023/08/01 12:37:59;;;;;;;4.70;1.70;;;25.80;84.30;;;;;;5116903;28;20030;-80
2023/08/01 12:40:24;;;;;;;2.72;1.50;;;25.80;84.50;;;;;;5116600;28;20036;-86
2023/08/01 12:42:50;;;;;;;1.73;1.38;;;25.80;84.60;;;;;;5116577;28;20062;-84
2023/08/01 12:45:16;;;;;;;4.85;1.90;;;25.90;84.90;;;;;;5098377;28;20471;-79